Flight Track Log - Related Links

Times and Time Zones

All times are in EDT time to prevent confusion due to time zone crossing. See the EJA831 flight status page for this flight to view local times or setup timezone preferences in your user account.

Time Position Orientation Groundspeed Altitude Reporting Facility
EDT Latitude Longitude Course Direction KTS MPH feet Rate Location/Type
Thu 03:24:18 PM 40.3653 -111.4242 166° South 260 299 12,600  Level Salt Lake Center
Thu 03:25:00 PM 39.3645 -111.2958 163° South  Level Estimated
Thu 03:25:20 PM 40.2989 -111.3692 148° Southeast 286 329 14,900  Level Salt Lake Center
Thu 03:26:00 PM 40.3701 -111.4153 162° South  Level Estimated
Thu 03:26:22 PM 40.1917 -111.3100 157° South 330 380 15,000  Level Salt Lake Center
Thu 03:27:00 PM 40.2706 -111.3474 152° Southeast  Level FlightAware Approximate
Thu 03:27:24 PM 40.0875 -111.2781 167° South 367 422 15,000  Level Salt Lake Center
Thu 03:28:00 PM 40.1588 -111.3344 167° South  Level Estimated
Thu 03:28:26 PM 39.9906 -111.2428 164° South 376 433 15,000  Level Salt Lake Center
Thu 03:29:00 PM 40.0470 -111.3214 166° South  Level Estimated
Thu 03:29:28 PM 39.8769 -111.2031 165° South 378 435 15,200  Level Salt Lake Center
Thu 03:30:29 PM 39.7786 -111.1686 165° South 378 435 17,700 2,341 Climbing Salt Lake Center
Thu 03:31:31 PM 39.6594 -111.1269 165° South 387 445 20,000 2,226 Climbing Salt Lake Center
Thu 03:32:33 PM 39.5575 -111.0914 165° South 391 450 22,300 2,419 Climbing Salt Lake Center
Thu 03:33:35 PM 39.4400 -111.0508 165° South 392 451 25,000 2,419 Climbing Salt Lake Center
Thu 03:34:37 PM 39.3383 -111.0153 165° South 392 451 27,300 2,371 Climbing Salt Lake Center
Thu 03:35:39 PM 39.2158 -110.9733 165° South 402 463 29,900 2,195 Climbing Salt Lake Center
Thu 03:36:40 PM 39.1100 -110.9361 165° South 407 468 31,800 2,000 Climbing Salt Lake Center
Thu 03:37:42 PM 38.9842 -110.8936 165° South 413 475 34,000 1,935 Climbing Salt Lake Center
Thu 03:38:44 PM 38.8769 -110.8561 165° South 414 476 35,800 1,694 Climbing Salt Lake Center
Thu 03:39:46 PM 38.7694 -110.8194 165° South 415 478 37,500 1,561 Climbing Salt Lake Center
Thu 03:40:47 PM 38.6464 -110.7775 165° South 415 478 39,000 1,171 Climbing Salt Lake Center
Thu 03:41:49 PM 38.5372 -110.7411 165° South 415 478 39,900 968 Climbing Salt Lake Center
Thu 03:42:51 PM 38.4044 -110.7067 169° South 429 494 41,000 532 Climbing Salt Lake Center
Thu 03:43:53 PM 38.2881 -110.7314 189° South 439 505 41,000  Level Salt Lake Center
Thu 03:44:55 PM 38.1497 -110.7672 192° South 446 513 41,000  Level Salt Lake Center
Thu 03:45:56 PM 38.0278 -110.7983 191° South 459 528 41,000  Level Salt Lake Center
Thu 03:46:58 PM 37.9078 -110.8292 191° South 465 535 41,000  Level Salt Lake Center
Thu 03:48:00 PM 37.7514 -110.8686 191° South 471 542 41,000  Level Salt Lake Center
Thu 03:49:02 PM 37.6203 -110.9000 191° South 476 548 41,000  Level Salt Lake Center
Thu 03:50:04 PM 37.4894 -110.9333 191° South 476 548 41,000  Level Salt Lake Center
Thu 03:51:05 PM 37.3589 -110.9658 191° South 476 548 41,000  Level Salt Lake Center
Thu 03:52:07 PM 37.2275 -110.9994 192° South 476 548 41,000  Level Salt Lake Center
Thu 03:53:09 PM 37.0961 -111.0311 191° South 477 549 41,000  Level Salt Lake Center
Thu 03:54:11 PM 36.9672 -111.0636 191° South 476 548 41,000  Level Salt Lake Center
Thu 03:55:12 PM 36.8122 -111.1019 191° South 476 548 41,000  Level Salt Lake Center
Thu 03:56:14 PM 36.6836 -111.1319 191° South 475 547 41,000  Level Salt Lake Center
Thu 03:57:32 PM 36.5286 -111.1703 191° South 471 542 41,000  Level Denver Center
Thu 03:58:34 PM 36.3983 -111.2025 191° South 471 542 41,000  Level Denver Center
Thu 03:59:36 PM 36.2694 -111.2344 191° South 471 542 41,000  Level Denver Center
Thu 04:00:37 PM 36.1139 -111.2672 190° South 471 542 41,000  Level Denver Center
Thu 04:01:39 PM 35.9814 -111.2575 177° South 475 547 41,000  Level Denver Center
Thu 04:02:41 PM 35.8500 -111.2444 175° South 476 548 41,000  Level Denver Center
Thu 04:03:43 PM 35.7186 -111.2331 176° South 475 547 41,000  Level Denver Center
Thu 04:04:45 PM 35.5789 -111.2203 176° South 474 545 41,000  Level Denver Center
Thu 04:05:47 PM 35.4542 -111.2081 175° South 473 544 41,000  Level Denver Center
Thu 04:06:49 PM 35.3078 -111.1961 176° South 472 543 41,000  Level Denver Center
Thu 04:08:06 PM 35.1556 -111.1819 176° South 471 542 41,000  Level Albuquerque Center
Thu 04:09:08 PM 35.0244 -111.1697 176° South 471 542 41,000  Level Albuquerque Center
Thu 04:10:10 PM 34.8675 -111.1567 176° South 471 542 41,000  Level Albuquerque Center
Thu 04:11:12 PM 34.7367 -111.1456 176° South 471 542 41,000  Level Albuquerque Center
Thu 04:12:14 PM 34.6069 -111.1325 175° South 470 541 41,000  Level Albuquerque Center
Thu 04:13:16 PM 34.4767 -111.1225 176° South 470 541 41,000  Level Albuquerque Center
Thu 04:14:18 PM 34.3469 -111.1103 176° South 469 540 41,000  Level Albuquerque Center
Thu 04:15:20 PM 34.2169 -111.0978 175° South 468 539 41,000  Level Albuquerque Center
Thu 04:16:23 PM 34.0589 -111.0844 176° South 468 539 41,000  Level Albuquerque Center
Thu 04:17:25 PM 33.9289 -111.0722 176° South 468 539 41,000  Level Albuquerque Center
Thu 04:18:27 PM 33.7978 -111.0614 176° South 468 539 41,000  Level Albuquerque Center
Thu 04:19:29 PM 33.6686 -111.0497 176° South 467 537 41,000  Level Albuquerque Center
Thu 04:20:31 PM 33.5389 -111.0389 176° South 464 534 41,000  Level Albuquerque Center
Thu 04:21:33 PM 33.4094 -111.0272 176° South 464 534 41,000  Level Albuquerque Center
Thu 04:22:35 PM 33.2806 -111.0156 176° South 464 534 41,000  Level Albuquerque Center
Thu 04:23:37 PM 33.1256 -111.0028 176° South 464 534 41,000  Level Albuquerque Center
Thu 04:24:39 PM 32.9958 -110.9922 176° South 464 534 41,000  Level Albuquerque Center
Thu 04:25:42 PM 32.8686 -110.9808 176° South 464 534 41,000  Level Albuquerque Center
Thu 04:26:44 PM 32.7419 -110.9706 176° South 460 529 41,000  Level Albuquerque Center
Thu 04:27:46 PM 32.6147 -110.9600 176° South 458 527 41,000  Level Albuquerque Center
Thu 04:28:48 PM 32.4886 -110.9492 176° South 457 526 41,000  Level Albuquerque Center
Thu 04:29:50 PM 32.3389 -110.9356 176° South 454 522 41,000  Level Albuquerque Center
Thu 04:30:52 PM 32.2139 -110.9233 175° South 453 521 41,000  Level Albuquerque Center
Thu 04:31:54 PM 32.0861 -110.9150 177° South 454 522 41,000  Level Albuquerque Center
Thu 04:32:56 PM 31.9617 -110.9228 183° South 453 521 41,000  Level Albuquerque Center
Thu 04:33:58 PM 31.8358 -110.9289 182° South 451 519 41,000  Level Albuquerque Center
Thu 04:35:00 PM 31.7089 -110.9350 182° South 451 519 41,000  Level Albuquerque Center
Thu 04:36:02 PM 31.5586 -110.9367 181° South 451 519 41,000  Level Albuquerque Center
Thu 04:37:05 PM 31.4328 -110.9458 184° South 451 519 41,000  Level Albuquerque Center
Thu 04:39:00 PM 31.2216 -110.9384 182° South  Level FlightAware Approximate
Thu 04:46:00 PM 30.4525 -110.9730 182° South  Level FlightAware Approximate
Thu 04:47:00 PM 30.3426 -110.9779 182° South  Level FlightAware Approximate
Thu 04:48:00 PM 30.2328 -110.9828 182° South  Level FlightAware Approximate
Thu 04:49:00 PM 30.1229 -110.9877 182° South  Level FlightAware Approximate
Thu 04:50:00 PM 30.0130 -110.9926 182° South  Level FlightAware Approximate
Thu 04:51:00 PM 29.9032 -110.9974 182° South  Level FlightAware Approximate
Thu 04:52:00 PM 29.7933 -111.0023 182° South  Level FlightAware Approximate
Thu 04:53:00 PM 29.6834 -111.0071 182° South  Level FlightAware Approximate
Thu 04:54:00 PM 29.5735 -111.0119 182° South  Level FlightAware Approximate
Thu 04:55:00 PM 29.4637 -111.0167 182° South  Level FlightAware Approximate
Thu 04:56:00 PM 29.3538 -111.0216 182° South  Level FlightAware Approximate
Thu 04:57:00 PM 29.2439 -111.0263 182° South  Level FlightAware Approximate
Thu 04:58:00 PM 29.1341 -111.0311 182° South  Level FlightAware Approximate
Thu 04:59:00 PM 29.0244 -111.0272 175° South  Level FlightAware Approximate
Thu 05:00:00 PM 28.9149 -111.0158 175° South  Level FlightAware Approximate
Thu 05:01:00 PM 28.8054 -111.0045 175° South  Level FlightAware Approximate
Thu 05:02:00 PM 28.6959 -110.9932 175° South  Level FlightAware Approximate
Thu 05:03:00 PM 28.5864 -110.9819 175° South  Level FlightAware Approximate
Thu 05:04:00 PM 28.4769 -110.9706 175° South  Level FlightAware Approximate
Thu 05:05:00 PM 28.3674 -110.9593 175° South  Level FlightAware Approximate
Thu 05:06:00 PM 28.2579 -110.9481 175° South  Level FlightAware Approximate
Thu 05:07:00 PM 28.1484 -110.9369 175° South  Level FlightAware Approximate
Thu 05:08:00 PM 28.0389 -110.9257 175° South  Level FlightAware Approximate
Thu 05:09:00 PM 27.9294 -110.9138 173° South  Level FlightAware Approximate
Thu 05:10:00 PM 27.8203 -110.8987 173° South  Level FlightAware Approximate
Thu 05:11:00 PM 27.7111 -110.8837 173° South  Level FlightAware Approximate
Thu 05:12:00 PM 27.6020 -110.8686 173° South  Level FlightAware Approximate
Thu 05:13:00 PM 27.4929 -110.8536 173° South  Level FlightAware Approximate
Thu 05:14:00 PM 27.3839 -110.8366 172° South  Level FlightAware Approximate
Thu 05:15:00 PM 27.2751 -110.8190 172° South  Level FlightAware Approximate
Thu 05:16:00 PM 27.1663 -110.8015 172° South  Level FlightAware Approximate
Thu 05:17:00 PM 27.0574 -110.7839 172° South  Level FlightAware Approximate
Thu 05:18:00 PM 26.9486 -110.7664 172° South  Level FlightAware Approximate
Thu 05:19:00 PM 26.8398 -110.7490 172° South  Level FlightAware Approximate
Thu 05:20:00 PM 26.7309 -110.7316 172° South  Level FlightAware Approximate
Thu 05:21:00 PM 26.6221 -110.7141 172° South  Level FlightAware Approximate
Thu 05:22:00 PM 26.5132 -110.6972 173° South  Level FlightAware Approximate
Thu 05:23:00 PM 26.4040 -110.6823 173° South  Level FlightAware Approximate
Thu 05:24:00 PM 26.2949 -110.6675 173° South  Level FlightAware Approximate
Thu 05:25:00 PM 26.1857 -110.6526 173° South  Level FlightAware Approximate
Thu 05:26:00 PM 26.0766 -110.6378 173° South  Level FlightAware Approximate
Thu 05:27:00 PM 25.9675 -110.6230 173° South  Level FlightAware Approximate
Thu 05:28:00 PM 25.8583 -110.6082 173° South  Level FlightAware Approximate
Thu 05:29:00 PM 25.7492 -110.5935 173° South  Level FlightAware Approximate
Thu 05:30:00 PM 25.6400 -110.5788 173° South  Level FlightAware Approximate
Thu 05:31:00 PM 25.5312 -110.5620 167° South  Level FlightAware Approximate
Thu 05:32:00 PM 25.4230 -110.5414 173° South  Level FlightAware Approximate
Thu 05:33:00 PM 25.3141 -110.5240 171° South  Level FlightAware Approximate
Thu 05:34:00 PM 25.2056 -110.5049 171° South  Level FlightAware Approximate
Thu 05:35:00 PM 25.0970 -110.4857 171° South  Level FlightAware Approximate
Thu 05:36:00 PM 24.9882 -110.4683 172° South  Level FlightAware Approximate
Thu 05:37:00 PM 24.8793 -110.4511 172° South  Level FlightAware Approximate
Thu 05:38:00 PM 24.7705 -110.4339 172° South  Level FlightAware Approximate
Thu 05:39:00 PM 24.6615 -110.4223 170° South  Level FlightAware Approximate
Thu 05:40:00 PM 24.5533 -110.4006 170° South  Level FlightAware Approximate
Thu 05:41:00 PM 24.4449 -110.3804 173° South  Level FlightAware Approximate
Thu 05:42:00 PM 24.3358 -110.3659 173° South  Level FlightAware Approximate
Thu 05:43:00 PM 24.2266 -110.3513 173° South  Level FlightAware Approximate
Thu 05:44:00 PM 24.1187 -110.3282 169° South  Level FlightAware Approximate
Thu 05:45:00 PM 24.0169 -110.2867 151° Southeast  Level FlightAware Approximate
Thu 05:46:00 PM 23.9205 -110.2289 151° Southeast  Level FlightAware Approximate
Thu 05:47:00 PM 23.8241 -110.1711 151° Southeast  Level FlightAware Approximate
Thu 05:48:00 PM 23.7285 -110.1116 150° Southeast  Level FlightAware Approximate
Thu 05:49:00 PM 23.6326 -110.0529 151° Southeast  Level FlightAware Approximate
Thu 05:50:00 PM 23.5392 -109.9899 147° Southeast  Level FlightAware Approximate
Thu 05:51:00 PM 23.4477 -109.9233 145° Southeast  Level FlightAware Approximate
Thu 05:52:00 PM 23.3571 -109.8554 145° Southeast  Level FlightAware Approximate
Thu 05:53:00 PM 23.2603 -109.7994 145° Southeast  Level FlightAware Approximate
Thu 05:54:00 PM 23.1668 -109.7368 151° Southeast  Level FlightAware Approximate
Thu 05:55:00 PM 23.1518 -109.7210 151° Southeast  Level Estimated
Thu 05:56:00 PM 23.1518 -109.7210 151° Southeast  Level Estimated
Thu 05:57:00 PM 23.1518 -109.7210 151° Southeast  Level Estimated
Thu 05:58:00 PM 23.1518 -109.7210 151° Southeast  Level Estimated
Thu 05:59:00 PM 23.1518 -109.7210 151° Southeast  Level Estimated
Thu 06:00:00 PM 23.1518 -109.7210 151° Southeast  Level Estimated
Thu 06:01:00 PM 23.1518 -109.7210 151° Southeast  Level Estimated
Thu 06:02:00 PM 23.1518 -109.7210 151° Southeast  Level Estimated
Thu 06:03:00 PM 23.1518 -109.7210 151° Southeast  Level Estimated
Thu 06:04:00 PM 23.1518 -109.7210 151° Southeast  Level Estimated
Thu 06:05:00 PM 23.1518 -109.7210 151° Southeast  Level Estimated
Thu 06:06:00 PM 23.1518 -109.7210 151° Southeast  Level Estimated
Thu 06:07:00 PM 23.1518 -109.7210 151° Southeast  Level Estimated
Thu 06:08:00 PM 23.1518 -109.7210 151° Southeast  Level Estimated
Thu 06:09:00 PM 23.1518 -109.7210 151° Southeast  Level Estimated
Thu 06:10:00 PM 23.1518 -109.7210 151° Southeast  Level Estimated
Thu 06:11:00 PM 23.1518 -109.7210 151° Southeast  Level Estimated

Login

Don't have an account? Register now (free) for customized features, flight alerts, and more!